PWSweather.com
Personal Weather Stations
Station Observations
KOTALAMPI
JyvaskylaFI 40640

JyvaskylaFI 40640

Lat: 62.233025, Lon: 25.673989

Elevation: 180

Station Type: Davis Vantage Vue

Latest ConditionsUpdated 4:00:21 PM GMT+02:02 Tuesday, Dec 18, 2018
Currently Today's Max Today's Min Today's Average
Temperature 26.4°F-3.1°C 27.5°F-2.5°C 26.1°F-3.3°C 27.0°F-2.8°C
Dew Point 25.7°F-3.5°C 27.0°F-2.8°C 25.3°F-3.7°C 26.5°F-3.1°C
Winds Calm Calm Calm -Calm - - Calm Calm
Wind Gusts -- -- - -
Humidity 97% 98% 97% 98%
Pressure 30.28 in1025.4 mb 30.28 in1025.4 mb 30.22 in1023.4 mb -
Hour Temp Dew Point Humidity Winds Wind Gusts Pressure Precip Precip Rate Daily Precip Total
04:00 PM 26.4°F-3.1°C 25.7°F-3.5°C 97% Calm Calm -- 30.28 in1025.4 mb 0.00 in0.0 mm 0.00 in0.0 mm 0.00 in0.0 mm
03:30 PM 26.6°F-3.0°C 25.9°F-3.4°C 97% Calm Calm -- 30.28 in1025.4 mb 0.00 in0.0 mm 0.00 in0.0 mm 0.00 in0.0 mm
03:00 PM 27.0°F-2.8°C 26.2°F-3.2°C 97% Calm Calm -- 30.27 in1025.1 mb 0.00 in0.0 mm 0.00 in0.0 mm 0.00 in0.0 mm
02:30 PM 27.0°F-2.8°C 26.2°F-3.2°C 97% Calm Calm -- 30.27 in1025.1 mb 0.00 in0.0 mm 0.00 in0.0 mm 0.00 in0.0 mm
02:00 PM 27.3°F-2.6°C 26.6°F-3.0°C 97% Calm Calm -- 30.27 in1025.1 mb 0.00 in0.0 mm 0.00 in0.0 mm 0.00 in0.0 mm
01:30 PM 27.5°F-2.5°C 26.8°F-2.9°C 97% Calm Calm -- 30.28 in1025.4 mb 0.00 in0.0 mm 0.00 in0.0 mm 0.00 in0.0 mm
01:00 PM 27.5°F-2.5°C 27.0°F-2.8°C 98% Calm Calm -- 30.28 in1025.4 mb 0.00 in0.0 mm 0.00 in0.0 mm 0.00 in0.0 mm
12:30 PM 27.5°F-2.5°C 26.8°F-2.9°C 97% Calm Calm -- 30.28 in1025.4 mb 0.00 in0.0 mm 0.00 in0.0 mm 0.00 in0.0 mm
12:00 PM 27.3°F-2.6°C 26.8°F-2.9°C 98% Calm Calm -- 30.27 in1025.1 mb 0.00 in0.0 mm 0.00 in0.0 mm 0.00 in0.0 mm
11:30 AM 27.1°F-2.7°C 26.7°F-2.9°C 98% Calm Calm -- 30.27 in1025.1 mb 0.00 in0.0 mm 0.00 in0.0 mm 0.00 in0.0 mm
11:00 AM 27.0°F-2.8°C 26.5°F-3.1°C 98% Calm Calm -- 30.27 in1025.1 mb 0.00 in0.0 mm 0.00 in0.0 mm 0.00 in0.0 mm
10:30 AM 27.0°F-2.8°C 26.5°F-3.1°C 98% Calm Calm -- 30.27 in1025.1 mb 0.00 in0.0 mm 0.00 in0.0 mm 0.00 in0.0 mm
10:00 AM 27.0°F-2.8°C 26.5°F-3.1°C 98% Calm Calm -- 30.27 in1025.1 mb 0.00 in0.0 mm 0.00 in0.0 mm 0.00 in0.0 mm
09:30 AM 27.0°F-2.8°C 26.5°F-3.1°C 98% Calm Calm -- 30.26 in1024.7 mb 0.00 in0.0 mm 0.00 in0.0 mm 0.00 in0.0 mm
09:00 AM 27.1°F-2.7°C 26.7°F-2.9°C 98% Calm Calm -- 30.26 in1024.7 mb 0.00 in0.0 mm 0.00 in0.0 mm 0.00 in0.0 mm
08:30 AM 27.1°F-2.7°C 26.7°F-2.9°C 98% Calm Calm -- 30.24 in1024.0 mb 0.00 in0.0 mm 0.00 in0.0 mm 0.00 in0.0 mm
08:00 AM 27.1°F-2.7°C 26.7°F-2.9°C 98% Calm Calm -- 30.24 in1024.0 mb 0.00 in0.0 mm 0.00 in0.0 mm 0.00 in0.0 mm
07:30 AM 27.1°F-2.7°C 26.7°F-2.9°C 98% Calm Calm -- 30.24 in1024.0 mb 0.00 in0.0 mm 0.00 in0.0 mm 0.00 in0.0 mm
07:00 AM 27.1°F-2.7°C 26.7°F-2.9°C 98% Calm Calm -- 30.23 in1023.7 mb 0.00 in0.0 mm 0.00 in0.0 mm 0.00 in0.0 mm
06:30 AM 27.1°F-2.7°C 26.7°F-2.9°C 98% Calm Calm -- 30.23 in1023.7 mb 0.00 in0.0 mm 0.00 in0.0 mm 0.00 in0.0 mm
06:00 AM 27.1°F-2.7°C 26.7°F-2.9°C 98% Calm Calm -- 30.24 in1024.0 mb 0.00 in0.0 mm 0.00 in0.0 mm 0.00 in0.0 mm
05:30 AM 27.1°F-2.7°C 26.7°F-2.9°C 98% Calm Calm -- 30.23 in1023.7 mb 0.00 in0.0 mm 0.00 in0.0 mm 0.00 in0.0 mm
05:00 AM 27.1°F-2.7°C 26.7°F-2.9°C 98% Calm Calm -- 30.23 in1023.7 mb 0.00 in0.0 mm 0.00 in0.0 mm 0.00 in0.0 mm
04:30 AM 27.1°F-2.7°C 26.7°F-2.9°C 98% Calm Calm -- 30.23 in1023.7 mb 0.00 in0.0 mm 0.00 in0.0 mm 0.00 in0.0 mm
04:00 AM 27.0°F-2.8°C 26.5°F-3.1°C 98% Calm Calm -- 30.23 in1023.7 mb 0.00 in0.0 mm 0.00 in0.0 mm 0.00 in0.0 mm
03:30 AM 27.0°F-2.8°C 26.5°F-3.1°C 98% Calm Calm -- 30.22 in1023.4 mb 0.00 in0.0 mm 0.00 in0.0 mm 0.00 in0.0 mm
03:00 AM 27.0°F-2.8°C 26.5°F-3.1°C 98% Calm Calm -- 30.23 in1023.7 mb 0.00 in0.0 mm 0.00 in0.0 mm 0.00 in0.0 mm
02:30 AM 26.8°F-2.9°C 26.3°F-3.2°C 98% Calm Calm -- 30.23 in1023.7 mb 0.00 in0.0 mm 0.00 in0.0 mm 0.00 in0.0 mm
02:00 AM 26.8°F-2.9°C 26.3°F-3.2°C 98% Calm Calm -- 30.23 in1023.7 mb 0.00 in0.0 mm 0.00 in0.0 mm 0.00 in0.0 mm
01:30 AM 26.8°F-2.9°C 26.3°F-3.2°C 98% Calm Calm -- 30.23 in1023.7 mb 0.00 in0.0 mm 0.00 in0.0 mm 0.00 in0.0 mm
01:00 AM 26.6°F-3.0°C 26.1°F-3.3°C 98% Calm Calm -- 30.23 in1023.7 mb 0.00 in0.0 mm 0.00 in0.0 mm 0.00 in0.0 mm
12:30 AM 26.2°F-3.2°C 25.8°F-3.4°C 98% Calm Calm -- 30.23 in1023.7 mb 0.00 in0.0 mm 0.00 in0.0 mm 0.00 in0.0 mm
12:00 AM 26.1°F-3.3°C 25.3°F-3.7°C 97% Calm Calm -- 30.23 in1023.7 mb 0.00 in0.0 mm 0.00 in0.0 mm 0.00 in0.0 mm